sensor_id;sensor_type;location;lat;lon;timestamp;temperature;humidity
21834;DHT22;11079;51.092;3.458;2022-07-23T00:03:05;16.50;99.90
21834;DHT22;11079;51.092;3.458;2022-07-23T00:06:19;16.60;99.90
21834;DHT22;11079;51.092;3.458;2022-07-23T00:15:24;16.40;99.90
21834;DHT22;11079;51.092;3.458;2022-07-23T00:18:16;16.40;99.90
21834;DHT22;11079;51.092;3.458;2022-07-23T00:34:22;16.30;99.90
21834;DHT22;11079;51.092;3.458;2022-07-23T00:40:51;16.40;99.90
21834;DHT22;11079;51.092;3.458;2022-07-23T01:01:10;16.10;99.90
21834;DHT22;11079;51.092;3.458;2022-07-23T01:04:16;16.10;99.90
21834;DHT22;11079;51.092;3.458;2022-07-23T01:13:18;16.20;99.90
21834;DHT22;11079;51.092;3.458;2022-07-23T01:15:46;16.10;99.90
21834;DHT22;11079;51.092;3.458;2022-07-23T01:18:23;16.00;99.90
21834;DHT22;11079;51.092;3.458;2022-07-23T01:20:49;15.90;99.90
21834;DHT22;11079;51.092;3.458;2022-07-23T01:23:15;15.90;99.90
21834;DHT22;11079;51.092;3.458;2022-07-23T01:25:48;15.80;99.90
21834;DHT22;11079;51.092;3.458;2022-07-23T01:28:14;15.80;99.90
21834;DHT22;11079;51.092;3.458;2022-07-23T01:30:40;15.90;99.90
21834;DHT22;11079;51.092;3.458;2022-07-23T01:33:06;16.00;99.90
21834;DHT22;11079;51.092;3.458;2022-07-23T01:35:50;15.90;99.90
21834;DHT22;11079;51.092;3.458;2022-07-23T01:38:16;15.80;99.90
21834;DHT22;11079;51.092;3.458;2022-07-23T01:40:42;15.60;99.90
21834;DHT22;11079;51.092;3.458;2022-07-23T01:43:11;15.70;99.90
21834;DHT22;11079;51.092;3.458;2022-07-23T01:45:38;15.60;99.90
21834;DHT22;11079;51.092;3.458;2022-07-23T01:48:08;15.70;99.90
21834;DHT22;11079;51.092;3.458;2022-07-23T01:50:33;15.60;99.90
21834;DHT22;11079;51.092;3.458;2022-07-23T01:53:01;15.60;99.90
21834;DHT22;11079;51.092;3.458;2022-07-23T01:55:30;15.50;99.90
21834;DHT22;11079;51.092;3.458;2022-07-23T01:57:56;15.60;99.90
21834;DHT22;11079;51.092;3.458;2022-07-23T02:00:21;15.50;99.90
21834;DHT22;11079;51.092;3.458;2022-07-23T02:02:48;15.60;99.90
21834;DHT22;11079;51.092;3.458;2022-07-23T02:05:14;15.50;99.90
21834;DHT22;11079;51.092;3.458;2022-07-23T02:07:40;15.50;99.90
21834;DHT22;11079;51.092;3.458;2022-07-23T02:10:10;15.60;99.90
21834;DHT22;11079;51.092;3.458;2022-07-23T02:12:36;15.60;99.90
21834;DHT22;11079;51.092;3.458;2022-07-23T02:15:05;15.60;99.90
21834;DHT22;11079;51.092;3.458;2022-07-23T02:17:32;15.60;99.90
21834;DHT22;11079;51.092;3.458;2022-07-23T02:20:06;15.50;99.90
21834;DHT22;11079;51.092;3.458;2022-07-23T02:22:41;15.50;99.90
21834;DHT22;11079;51.092;3.458;2022-07-23T02:25:13;15.50;99.90
21834;DHT22;11079;51.092;3.458;2022-07-23T02:27:41;15.50;99.90
21834;DHT22;11079;51.092;3.458;2022-07-23T02:30:29;15.50;99.90
21834;DHT22;11079;51.092;3.458;2022-07-23T02:33:20;15.50;99.90
21834;DHT22;11079;51.092;3.458;2022-07-23T02:35:51;15.50;99.90
21834;DHT22;11079;51.092;3.458;2022-07-23T02:38:19;15.50;99.90
21834;DHT22;11079;51.092;3.458;2022-07-23T02:40:46;15.50;99.90
21834;DHT22;11079;51.092;3.458;2022-07-23T02:43:21;15.50;99.90
21834;DHT22;11079;51.092;3.458;2022-07-23T02:45:49;15.50;99.90
21834;DHT22;11079;51.092;3.458;2022-07-23T02:48:30;15.50;99.90
21834;DHT22;11079;51.092;3.458;2022-07-23T02:51:12;15.50;99.90
21834;DHT22;11079;51.092;3.458;2022-07-23T02:54:04;15.40;99.90
21834;DHT22;11079;51.092;3.458;2022-07-23T02:56:33;15.40;99.90
21834;DHT22;11079;51.092;3.458;2022-07-23T02:58:58;15.40;99.90
21834;DHT22;11079;51.092;3.458;2022-07-23T03:01:26;15.40;99.90
21834;DHT22;11079;51.092;3.458;2022-07-23T03:03:58;15.30;99.90
21834;DHT22;11079;51.092;3.458;2022-07-23T03:06:29;15.40;99.90
21834;DHT22;11079;51.092;3.458;2022-07-23T03:09:05;15.30;99.90
21834;DHT22;11079;51.092;3.458;2022-07-23T03:11:46;15.30;99.90
21834;DHT22;11079;51.092;3.458;2022-07-23T03:14:34;15.30;99.90
21834;DHT22;11079;51.092;3.458;2022-07-23T03:17:08;15.30;99.90
21834;DHT22;11079;51.092;3.458;2022-07-23T03:19:54;15.20;99.90
21834;DHT22;11079;51.092;3.458;2022-07-23T03:22:31;15.20;99.90
21834;DHT22;11079;51.092;3.458;2022-07-23T03:24:57;15.20;99.90
21834;DHT22;11079;51.092;3.458;2022-07-23T03:27:25;15.10;99.90
21834;DHT22;11079;51.092;3.458;2022-07-23T03:30:02;15.10;99.90
21834;DHT22;11079;51.092;3.458;2022-07-23T03:33:00;15.00;99.90
21834;DHT22;11079;51.092;3.458;2022-07-23T03:35:56;14.90;99.90
21834;DHT22;11079;51.092;3.458;2022-07-23T03:38:58;14.90;99.90
21834;DHT22;11079;51.092;3.458;2022-07-23T03:41:29;14.90;99.90
21834;DHT22;11079;51.092;3.458;2022-07-23T03:44:11;14.90;99.90
21834;DHT22;11079;51.092;3.458;2022-07-23T03:46:43;14.90;99.90
21834;DHT22;11079;51.092;3.458;2022-07-23T03:49:14;14.90;99.90
21834;DHT22;11079;51.092;3.458;2022-07-23T03:51:41;14.90;99.90
21834;DHT22;11079;51.092;3.458;2022-07-23T03:54:10;14.90;99.90
21834;DHT22;11079;51.092;3.458;2022-07-23T03:56:38;14.90;99.90
21834;DHT22;11079;51.092;3.458;2022-07-23T03:59:04;14.90;99.90
21834;DHT22;11079;51.092;3.458;2022-07-23T04:01:31;14.90;99.90
21834;DHT22;11079;51.092;3.458;2022-07-23T04:03:59;15.10;99.90
21834;DHT22;11079;51.092;3.458;2022-07-23T04:06:43;15.30;99.90
21834;DHT22;11079;51.092;3.458;2022-07-23T04:09:27;15.40;99.90
21834;DHT22;11079;51.092;3.458;2022-07-23T04:11:53;15.40;99.90
21834;DHT22;11079;51.092;3.458;2022-07-23T04:17:34;15.30;99.90
21834;DHT22;11079;51.092;3.458;2022-07-23T06:43:11;29.30;99.90
21834;DHT22;11079;51.092;3.458;2022-07-23T06:45:36;29.50;99.90
21834;DHT22;11079;51.092;3.458;2022-07-23T06:48:02;29.80;99.90
21834;DHT22;11079;51.092;3.458;2022-07-23T06:50:28;30.30;99.90
21834;DHT22;11079;51.092;3.458;2022-07-23T06:52:54;30.90;99.90
21834;DHT22;11079;51.092;3.458;2022-07-23T06:55:20;30.50;99.90
21834;DHT22;11079;51.092;3.458;2022-07-23T06:57:45;30.30;99.90
21834;DHT22;11079;51.092;3.458;2022-07-23T07:00:18;30.80;99.90
21834;DHT22;11079;51.092;3.458;2022-07-23T07:02:44;31.50;99.90
21834;DHT22;11079;51.092;3.458;2022-07-23T07:05:12;31.80;99.90
21834;DHT22;11079;51.092;3.458;2022-07-23T07:07:37;31.80;99.90
21834;DHT22;11079;51.092;3.458;2022-07-23T07:10:22;32.40;99.90
21834;DHT22;11079;51.092;3.458;2022-07-23T07:12:50;32.90;99.90
21834;DHT22;11079;51.092;3.458;2022-07-23T07:15:18;33.40;99.90
21834;DHT22;11079;51.092;3.458;2022-07-23T07:17:44;33.90;99.90
21834;DHT22;11079;51.092;3.458;2022-07-23T07:20:23;34.30;99.90
21834;DHT22;11079;51.092;3.458;2022-07-23T07:22:49;35.00;98.90
21834;DHT22;11079;51.092;3.458;2022-07-23T07:25:15;34.10;97.40
21834;DHT22;11079;51.092;3.458;2022-07-23T07:27:48;34.20;97.30
21834;DHT22;11079;51.092;3.458;2022-07-23T07:30:53;33.90;97.60
21834;DHT22;11079;51.092;3.458;2022-07-23T07:33:18;35.00;96.00
21834;DHT22;11079;51.092;3.458;2022-07-23T07:36:10;35.20;95.20
21834;DHT22;11079;51.092;3.458;2022-07-23T07:38:41;33.90;95.80
21834;DHT22;11079;51.092;3.458;2022-07-23T07:41:39;33.00;97.40
21834;DHT22;11079;51.092;3.458;2022-07-23T07:44:04;32.00;98.50
21834;DHT22;11079;51.092;3.458;2022-07-23T07:46:39;31.40;99.70
21834;DHT22;11079;51.092;3.458;2022-07-23T07:49:05;30.70;99.90
21834;DHT22;11079;51.092;3.458;2022-07-23T07:51:51;30.30;99.90
21834;DHT22;11079;51.092;3.458;2022-07-23T07:54:16;29.30;99.90
21834;DHT22;11079;51.092;3.458;2022-07-23T07:56:52;28.70;99.90
21834;DHT22;11079;51.092;3.458;2022-07-23T08:02:23;28.30;99.90
21834;DHT22;11079;51.092;3.458;2022-07-23T08:08:00;27.30;99.90
21834;DHT22;11079;51.092;3.458;2022-07-23T08:10:36;26.60;99.90
21834;DHT22;11079;51.092;3.458;2022-07-23T08:13:08;26.60;99.90
21834;DHT22;11079;51.092;3.458;2022-07-23T08:15:45;27.10;99.90
21834;DHT22;11079;51.092;3.458;2022-07-23T08:18:11;27.90;99.90
21834;DHT22;11079;51.092;3.458;2022-07-23T08:31:02;31.40;99.90
21834;DHT22;11079;51.092;3.458;2022-07-23T08:33:28;31.10;99.90
21834;DHT22;11079;51.092;3.458;2022-07-23T08:35:54;31.10;99.90
21834;DHT22;11079;51.092;3.458;2022-07-23T08:38:22;32.00;99.90
21834;DHT22;11079;51.092;3.458;2022-07-23T08:40:50;33.80;98.40
21834;DHT22;11079;51.092;3.458;2022-07-23T08:43:25;34.20;97.90
21834;DHT22;11079;51.092;3.458;2022-07-23T08:45:54;35.00;96.50
21834;DHT22;11079;51.092;3.458;2022-07-23T08:48:26;35.80;93.90
21834;DHT22;11079;51.092;3.458;2022-07-23T08:50:57;36.40;91.60
21834;DHT22;11079;51.092;3.458;2022-07-23T08:53:23;36.90;90.20
21834;DHT22;11079;51.092;3.458;2022-07-23T08:55:51;37.00;87.20
21834;DHT22;11079;51.092;3.458;2022-07-23T08:58:18;36.30;86.70
21834;DHT22;11079;51.092;3.458;2022-07-23T09:00:44;36.00;87.90
21834;DHT22;11079;51.092;3.458;2022-07-23T09:03:22;36.40;87.20
21834;DHT22;11079;51.092;3.458;2022-07-23T09:05:50;37.00;83.60
21834;DHT22;11079;51.092;3.458;2022-07-23T09:08:21;38.40;81.00
21834;DHT22;11079;51.092;3.458;2022-07-23T09:10:48;39.50;76.20
21834;DHT22;11079;51.092;3.458;2022-07-23T09:16:16;40.90;71.10
21834;DHT22;11079;51.092;3.458;2022-07-23T09:18:46;40.80;66.40
21834;DHT22;11079;51.092;3.458;2022-07-23T09:21:27;39.50;66.40
21834;DHT22;11079;51.092;3.458;2022-07-23T09:24:12;38.10;65.40
21834;DHT22;11079;51.092;3.458;2022-07-23T09:26:45;37.70;69.90
21834;DHT22;11079;51.092;3.458;2022-07-23T09:29:25;37.50;69.70
21834;DHT22;11079;51.092;3.458;2022-07-23T09:34:25;38.70;67.40
21834;DHT22;11079;51.092;3.458;2022-07-23T09:36:55;39.80;64.90
21834;DHT22;11079;51.092;3.458;2022-07-23T09:39:29;39.60;64.20
21834;DHT22;11079;51.092;3.458;2022-07-23T09:41:56;40.70;63.00
21834;DHT22;11079;51.092;3.458;2022-07-23T09:44:22;39.80;62.30
21834;DHT22;11079;51.092;3.458;2022-07-23T09:46:50;38.80;63.60
21834;DHT22;11079;51.092;3.458;2022-07-23T09:49:21;37.80;64.90
21834;DHT22;11079;51.092;3.458;2022-07-23T09:51:52;36.40;67.60
21834;DHT22;11079;51.092;3.458;2022-07-23T09:54:28;35.20;69.10
21834;DHT22;11079;51.092;3.458;2022-07-23T09:56:57;35.60;69.40
21834;DHT22;11079;51.092;3.458;2022-07-23T09:59:28;36.30;69.80
21834;DHT22;11079;51.092;3.458;2022-07-23T10:01:56;38.30;66.60
21834;DHT22;11079;51.092;3.458;2022-07-23T10:04:25;39.90;64.50
21834;DHT22;11079;51.092;3.458;2022-07-23T10:06:54;39.40;63.00
21834;DHT22;11079;51.092;3.458;2022-07-23T10:09:28;38.30;64.30
21834;DHT22;11079;51.092;3.458;2022-07-23T10:12:00;36.90;65.10
21834;DHT22;11079;51.092;3.458;2022-07-23T10:14:40;37.30;67.00
21834;DHT22;11079;51.092;3.458;2022-07-23T10:17:07;39.40;64.70
21834;DHT22;11079;51.092;3.458;2022-07-23T10:19:33;39.90;62.70
21834;DHT22;11079;51.092;3.458;2022-07-23T10:22:01;40.00;61.10
21834;DHT22;11079;51.092;3.458;2022-07-23T10:27:02;40.20;60.30
21834;DHT22;11079;51.092;3.458;2022-07-23T10:34:48;40.10;59.00
21834;DHT22;11079;51.092;3.458;2022-07-23T10:37:24;40.90;58.70
21834;DHT22;11079;51.092;3.458;2022-07-23T10:40:16;41.00;58.00
21834;DHT22;11079;51.092;3.458;2022-07-23T10:42:47;41.40;57.70
21834;DHT22;11079;51.092;3.458;2022-07-23T10:45:26;40.70;56.60
21834;DHT22;11079;51.092;3.458;2022-07-23T10:47:53;41.10;57.10
21834;DHT22;11079;51.092;3.458;2022-07-23T10:50:25;40.00;57.50
21834;DHT22;11079;51.092;3.458;2022-07-23T10:53:13;40.60;57.70
21834;DHT22;11079;51.092;3.458;2022-07-23T10:55:42;39.60;57.90
21834;DHT22;11079;51.092;3.458;2022-07-23T10:58:08;39.10;58.70
21834;DHT22;11079;51.092;3.458;2022-07-23T11:00:36;39.20;58.20
21834;DHT22;11079;51.092;3.458;2022-07-23T11:03:27;38.70;58.70
21834;DHT22;11079;51.092;3.458;2022-07-23T11:05:48;38.70;59.80
21834;DHT22;11079;51.092;3.458;2022-07-23T11:08:18;39.90;58.20
21834;DHT22;11079;51.092;3.458;2022-07-23T11:32:02;40.90;54.80
21834;DHT22;11079;51.092;3.458;2022-07-23T11:34:34;40.90;54.70
21834;DHT22;11079;51.092;3.458;2022-07-23T11:37:02;40.30;54.60
21834;DHT22;11079;51.092;3.458;2022-07-23T11:39:29;40.80;55.40
21834;DHT22;11079;51.092;3.458;2022-07-23T11:41:56;40.70;55.30
21834;DHT22;11079;51.092;3.458;2022-07-23T11:44:37;41.20;55.30
21834;DHT22;11079;51.092;3.458;2022-07-23T11:47:10;41.90;54.30
21834;DHT22;11079;51.092;3.458;2022-07-23T11:49:37;41.10;54.00
21834;DHT22;11079;51.092;3.458;2022-07-23T11:54:50;39.30;55.60
21834;DHT22;11079;51.092;3.458;2022-07-23T11:57:17;39.30;55.60
21834;DHT22;11079;51.092;3.458;2022-07-23T11:59:46;39.50;56.20
21834;DHT22;11079;51.092;3.458;2022-07-23T12:02:12;39.40;56.40
21834;DHT22;11079;51.092;3.458;2022-07-23T12:04:46;39.80;56.20
21834;DHT22;11079;51.092;3.458;2022-07-23T12:07:35;40.50;54.90
21834;DHT22;11079;51.092;3.458;2022-07-23T12:10:25;41.20;54.00
21834;DHT22;11079;51.092;3.458;2022-07-23T12:13:07;41.10;55.50
21834;DHT22;11079;51.092;3.458;2022-07-23T12:15:46;41.20;55.60
21834;DHT22;11079;51.092;3.458;2022-07-23T12:18:15;41.20;53.60
21834;DHT22;11079;51.092;3.458;2022-07-23T12:20:43;41.70;55.60
21834;DHT22;11079;51.092;3.458;2022-07-23T12:23:12;41.30;54.80
21834;DHT22;11079;51.092;3.458;2022-07-23T12:25:41;41.70;54.30
21834;DHT22;11079;51.092;3.458;2022-07-23T12:28:08;41.20;54.10
21834;DHT22;11079;51.092;3.458;2022-07-23T12:30:49;41.00;53.80
21834;DHT22;11079;51.092;3.458;2022-07-23T12:35:48;40.00;54.20
21834;DHT22;11079;51.092;3.458;2022-07-23T12:38:21;40.40;54.70
21834;DHT22;11079;51.092;3.458;2022-07-23T12:40:58;40.90;55.00
21834;DHT22;11079;51.092;3.458;2022-07-23T12:43:27;40.80;54.00
21834;DHT22;11079;51.092;3.458;2022-07-23T12:45:55;40.50;55.00
21834;DHT22;11079;51.092;3.458;2022-07-23T12:48:29;39.60;54.50
21834;DHT22;11079;51.092;3.458;2022-07-23T12:51:04;39.10;55.60
21834;DHT22;11079;51.092;3.458;2022-07-23T12:56:17;35.40;60.00
21834;DHT22;11079;51.092;3.458;2022-07-23T13:06:32;34.90;65.40
21834;DHT22;11079;51.092;3.458;2022-07-23T13:08:58;35.00;64.60
21834;DHT22;11079;51.092;3.458;2022-07-23T13:11:24;36.00;63.70
21834;DHT22;11079;51.092;3.458;2022-07-23T13:13:50;36.20;62.40
21834;DHT22;11079;51.092;3.458;2022-07-23T13:16:16;35.70;62.50
21834;DHT22;11079;51.092;3.458;2022-07-23T13:18:41;34.50;63.10
21834;DHT22;11079;51.092;3.458;2022-07-23T13:21:07;34.20;65.00
21834;DHT22;11079;51.092;3.458;2022-07-23T13:23:33;34.10;65.40
21834;DHT22;11079;51.092;3.458;2022-07-23T13:25:59;34.60;65.10
21834;DHT22;11079;51.092;3.458;2022-07-23T13:28:25;34.20;67.70
21834;DHT22;11079;51.092;3.458;2022-07-23T13:30:51;35.10;67.20
21834;DHT22;11079;51.092;3.458;2022-07-23T13:33:23;35.60;63.10
21834;DHT22;11079;51.092;3.458;2022-07-23T13:35:49;35.90;63.10
21834;DHT22;11079;51.092;3.458;2022-07-23T13:38:16;35.00;63.10
21834;DHT22;11079;51.092;3.458;2022-07-23T13:40:45;34.30;64.20
21834;DHT22;11079;51.092;3.458;2022-07-23T13:43:12;34.00;66.30
21834;DHT22;11079;51.092;3.458;2022-07-23T13:45:39;34.60;65.40
21834;DHT22;11079;51.092;3.458;2022-07-23T13:48:06;35.50;64.40
21834;DHT22;11079;51.092;3.458;2022-07-23T13:50:33;35.70;63.90
21834;DHT22;11079;51.092;3.458;2022-07-23T13:53:10;36.00;62.80
21834;DHT22;11079;51.092;3.458;2022-07-23T13:55:37;35.80;63.00
21834;DHT22;11079;51.092;3.458;2022-07-23T13:58:04;35.40;63.60
21834;DHT22;11079;51.092;3.458;2022-07-23T14:00:31;34.90;64.10
21834;DHT22;11079;51.092;3.458;2022-07-23T14:02:58;34.80;65.90
21834;DHT22;11079;51.092;3.458;2022-07-23T14:05:24;34.90;66.60
21834;DHT22;11079;51.092;3.458;2022-07-23T14:07:50;34.70;65.40
21834;DHT22;11079;51.092;3.458;2022-07-23T14:10:18;33.70;66.10
21834;DHT22;11079;51.092;3.458;2022-07-23T14:12:45;32.90;67.50
21834;DHT22;11079;51.092;3.458;2022-07-23T14:15:11;32.60;69.70
21834;DHT22;11079;51.092;3.458;2022-07-23T14:17:39;32.60;71.10
21834;DHT22;11079;51.092;3.458;2022-07-23T14:20:07;32.50;70.10
21834;DHT22;11079;51.092;3.458;2022-07-23T14:22:33;32.50;70.50
21834;DHT22;11079;51.092;3.458;2022-07-23T14:24:59;32.60;70.80
21834;DHT22;11079;51.092;3.458;2022-07-23T14:27:26;32.90;71.60
21834;DHT22;11079;51.092;3.458;2022-07-23T14:29:53;32.80;70.80
21834;DHT22;11079;51.092;3.458;2022-07-23T14:32:19;33.00;70.50
21834;DHT22;11079;51.092;3.458;2022-07-23T14:34:45;33.10;69.70
21834;DHT22;11079;51.092;3.458;2022-07-23T14:37:11;33.10;71.10
21834;DHT22;11079;51.092;3.458;2022-07-23T14:39:38;32.90;69.10
21834;DHT22;11079;51.092;3.458;2022-07-23T14:42:04;31.90;70.20
21834;DHT22;11079;51.092;3.458;2022-07-23T14:44:30;30.70;73.80
21834;DHT22;11079;51.092;3.458;2022-07-23T14:46:55;30.80;75.60
21834;DHT22;11079;51.092;3.458;2022-07-23T14:49:21;31.10;78.90
21834;DHT22;11079;51.092;3.458;2022-07-23T14:51:47;31.30;77.20
21834;DHT22;11079;51.092;3.458;2022-07-23T14:54:13;31.30;79.30
21834;DHT22;11079;51.092;3.458;2022-07-23T14:56:40;31.50;76.70
21834;DHT22;11079;51.092;3.458;2022-07-23T14:59:06;31.70;78.30
21834;DHT22;11079;51.092;3.458;2022-07-23T15:01:32;31.60;77.70
21834;DHT22;11079;51.092;3.458;2022-07-23T15:03:58;31.50;77.70
21834;DHT22;11079;51.092;3.458;2022-07-23T15:06:24;31.30;78.70
21834;DHT22;11079;51.092;3.458;2022-07-23T15:08:50;30.90;79.10
21834;DHT22;11079;51.092;3.458;2022-07-23T15:11:15;30.60;78.10
21834;DHT22;11079;51.092;3.458;2022-07-23T15:13:41;30.70;77.70
21834;DHT22;11079;51.092;3.458;2022-07-23T15:16:07;30.60;77.80
21834;DHT22;11079;51.092;3.458;2022-07-23T15:18:33;30.70;77.70
21834;DHT22;11079;51.092;3.458;2022-07-23T15:20:59;30.70;78.20
21834;DHT22;11079;51.092;3.458;2022-07-23T15:23:26;30.70;77.00
21834;DHT22;11079;51.092;3.458;2022-07-23T15:25:54;30.60;78.60
21834;DHT22;11079;51.092;3.458;2022-07-23T15:28:20;30.30;82.00
21834;DHT22;11079;51.092;3.458;2022-07-23T15:30:46;30.50;79.90
21834;DHT22;11079;51.092;3.458;2022-07-23T15:33:11;30.60;81.10
21834;DHT22;11079;51.092;3.458;2022-07-23T15:35:37;30.60;78.90
21834;DHT22;11079;51.092;3.458;2022-07-23T15:38:03;30.50;79.10
21834;DHT22;11079;51.092;3.458;2022-07-23T15:40:28;30.40;81.10
21834;DHT22;11079;51.092;3.458;2022-07-23T15:42:54;30.20;80.70
21834;DHT22;11079;51.092;3.458;2022-07-23T15:45:20;29.90;82.90
21834;DHT22;11079;51.092;3.458;2022-07-23T15:47:47;30.00;83.30
21834;DHT22;11079;51.092;3.458;2022-07-23T15:50:13;30.20;83.50
21834;DHT22;11079;51.092;3.458;2022-07-23T15:52:39;30.30;83.90
21834;DHT22;11079;51.092;3.458;2022-07-23T15:55:05;30.40;83.70
21834;DHT22;11079;51.092;3.458;2022-07-23T15:57:31;30.40;82.20
21834;DHT22;11079;51.092;3.458;2022-07-23T15:59:56;30.30;84.60
21834;DHT22;11079;51.092;3.458;2022-07-23T16:02:23;30.10;88.20
21834;DHT22;11079;51.092;3.458;2022-07-23T16:04:49;30.00;89.60
21834;DHT22;11079;51.092;3.458;2022-07-23T16:07:19;29.80;90.20
21834;DHT22;11079;51.092;3.458;2022-07-23T16:09:45;29.80;90.60
21834;DHT22;11079;51.092;3.458;2022-07-23T16:12:10;29.80;90.20
21834;DHT22;11079;51.092;3.458;2022-07-23T16:14:36;29.70;90.00
21834;DHT22;11079;51.092;3.458;2022-07-23T16:17:02;29.70;90.30
21834;DHT22;11079;51.092;3.458;2022-07-23T16:19:28;29.60;91.40
21834;DHT22;11079;51.092;3.458;2022-07-23T16:21:53;29.50;91.90
21834;DHT22;11079;51.092;3.458;2022-07-23T16:24:19;29.50;92.00
21834;DHT22;11079;51.092;3.458;2022-07-23T16:26:45;29.50;91.60
21834;DHT22;11079;51.092;3.458;2022-07-23T16:29:11;29.60;91.70
21834;DHT22;11079;51.092;3.458;2022-07-23T16:31:37;29.70;91.80
21834;DHT22;11079;51.092;3.458;2022-07-23T17:01:05;27.40;99.90
21834;DHT22;11079;51.092;3.458;2022-07-23T17:07:30;27.10;99.90
21834;DHT22;11079;51.092;3.458;2022-07-23T17:22:03;26.40;99.90
21834;DHT22;11079;51.092;3.458;2022-07-23T17:24:57;26.10;99.90
21834;DHT22;11079;51.092;3.458;2022-07-23T20:26:52;21.80;99.90
21834;DHT22;11079;51.092;3.458;2022-07-23T20:29:26;21.80;99.90
21834;DHT22;11079;51.092;3.458;2022-07-23T20:31:52;21.70;99.90
21834;DHT22;11079;51.092;3.458;2022-07-23T20:34:18;21.70;99.90
21834;DHT22;11079;51.092;3.458;2022-07-23T20:36:44;21.60;99.90
21834;DHT22;11079;51.092;3.458;2022-07-23T20:39:35;21.60;99.90
21834;DHT22;11079;51.092;3.458;2022-07-23T20:42:16;21.60;99.90
21834;DHT22;11079;51.092;3.458;2022-07-23T20:44:46;21.60;99.90
21834;DHT22;11079;51.092;3.458;2022-07-23T20:47:18;21.40;99.90
21834;DHT22;11079;51.092;3.458;2022-07-23T20:49:48;21.40;99.90
21834;DHT22;11079;51.092;3.458;2022-07-23T20:52:14;21.30;99.90
21834;DHT22;11079;51.092;3.458;2022-07-23T20:54:42;21.30;99.90
21834;DHT22;11079;51.092;3.458;2022-07-23T20:57:08;21.30;99.90
21834;DHT22;11079;51.092;3.458;2022-07-23T20:59:33;21.40;99.90
21834;DHT22;11079;51.092;3.458;2022-07-23T21:01:59;21.30;99.90
21834;DHT22;11079;51.092;3.458;2022-07-23T21:04:25;21.20;99.90
21834;DHT22;11079;51.092;3.458;2022-07-23T21:06:51;21.10;99.90
21834;DHT22;11079;51.092;3.458;2022-07-23T21:09:16;21.10;99.90
21834;DHT22;11079;51.092;3.458;2022-07-23T21:11:42;21.00;99.90
21834;DHT22;11079;51.092;3.458;2022-07-23T21:14:08;20.90;99.90
21834;DHT22;11079;51.092;3.458;2022-07-23T21:16:33;21.10;99.90
21834;DHT22;11079;51.092;3.458;2022-07-23T21:18:59;21.20;99.90
21834;DHT22;11079;51.092;3.458;2022-07-23T21:21:25;21.30;99.90
21834;DHT22;11079;51.092;3.458;2022-07-23T21:23:50;21.10;99.90
21834;DHT22;11079;51.092;3.458;2022-07-23T21:26:19;21.00;99.90
21834;DHT22;11079;51.092;3.458;2022-07-23T21:28:45;20.90;99.90
21834;DHT22;11079;51.092;3.458;2022-07-23T21:31:11;20.90;99.90
21834;DHT22;11079;51.092;3.458;2022-07-23T21:33:37;20.90;99.90
21834;DHT22;11079;51.092;3.458;2022-07-23T21:36:03;21.00;99.90
21834;DHT22;11079;51.092;3.458;2022-07-23T21:38:30;21.00;99.90
21834;DHT22;11079;51.092;3.458;2022-07-23T21:40:56;20.90;99.90
21834;DHT22;11079;51.092;3.458;2022-07-23T21:43:21;20.90;99.90
21834;DHT22;11079;51.092;3.458;2022-07-23T21:45:49;20.80;99.90
21834;DHT22;11079;51.092;3.458;2022-07-23T21:48:15;20.70;99.90
21834;DHT22;11079;51.092;3.458;2022-07-23T21:50:41;20.70;99.90
21834;DHT22;11079;51.092;3.458;2022-07-23T21:53:09;20.60;99.90
21834;DHT22;11079;51.092;3.458;2022-07-23T21:55:35;20.70;99.90
21834;DHT22;11079;51.092;3.458;2022-07-23T21:58:01;20.60;99.90
21834;DHT22;11079;51.092;3.458;2022-07-23T22:00:30;20.60;99.90
21834;DHT22;11079;51.092;3.458;2022-07-23T22:02:57;20.50;99.90
21834;DHT22;11079;51.092;3.458;2022-07-23T22:05:25;20.50;99.90
21834;DHT22;11079;51.092;3.458;2022-07-23T22:07:54;20.40;99.90
21834;DHT22;11079;51.092;3.458;2022-07-23T22:10:20;20.30;99.90
21834;DHT22;11079;51.092;3.458;2022-07-23T22:12:45;20.30;99.90
21834;DHT22;11079;51.092;3.458;2022-07-23T22:15:14;20.30;99.90
21834;DHT22;11079;51.092;3.458;2022-07-23T22:17:51;20.30;99.90
